Time;durP1;ratioP1;P1;durP2;ratioP2;P2;SDS_P1;SDS_P2;PMS_P1;PMS_P2;Temp;Humidity;BMP_temperature;BMP_pressure;BME280_temperature;BME280_humidity;BME280_pressure;Samples;Min_cycle;Max_cycle;Signal;HPM_P1;HPM_P2
2023/12/29 00:02:24;;;;;;;7.95;1.77;;;;;;;11.57;86.55;100369.69;10540732;28;20047;-61
2023/12/29 00:07:46;;;;;;;9.63;2.40;;;;;;;11.59;86.61;100391.19;10535784;28;20488;-61
2023/12/29 00:13:08;;;;;;;13.05;1.90;;;;;;;11.53;87.15;100375.91;10543104;28;20098;-60
2023/12/29 00:18:29;;;;;;;11.25;2.10;;;;;;;11.56;87.91;100360.22;10545688;28;20044;-60
2023/12/29 00:23:51;;;;;;;13.60;2.28;;;;;;;11.45;88.92;100345.13;10541155;28;20055;-60
2023/12/29 00:29:15;;;;;;;11.70;2.30;;;;;;;11.33;89.81;100370.69;10550551;28;20047;-60
2023/12/29 00:34:37;;;;;;;12.80;2.17;;;;;;;11.36;88.77;100368.81;10537552;28;20081;-60
2023/12/29 00:39:59;;;;;;;17.15;2.05;;;;;;;11.43;88.61;100366.81;10539876;28;20059;-60
2023/12/29 00:45:21;;;;;;;10.20;2.15;;;;;;;11.40;90.49;100377.31;10532330;28;20047;-60
2023/12/29 00:50:42;;;;;;;8.57;1.90;;;;;;;11.22;92.29;100383.22;10546696;28;20051;-60
2023/12/29 00:56:10;;;;;;;9.88;1.63;;;;;;;11.19;91.82;100375.59;10544849;28;20043;-60
2023/12/29 01:01:36;;;;;;;11.35;2.08;;;;;;;11.24;91.74;100339.97;10539223;28;20062;-60
2023/12/29 01:06:57;;;;;;;9.70;1.98;;;;;;;11.26;91.11;100364.06;10541242;28;20052;-60
2023/12/29 01:12:19;;;;;;;8.90;2.10;;;;;;;11.23;90.84;100340.88;10545056;28;20047;-59
2023/12/29 01:17:41;;;;;;;10.38;1.67;;;;;;;11.29;90.38;100333.72;10537061;28;20044;-60
2023/12/29 01:23:03;;;;;;;9.80;1.80;;;;;;;11.31;90.00;100331.06;10544337;28;20097;-60
2023/12/29 01:28:25;;;;;;;11.60;1.80;;;;;;;11.32;89.72;100332.75;10539266;28;20131;-60
2023/12/29 01:33:50;;;;;;;10.43;1.95;;;;;;;11.29;91.05;100333.72;10535752;28;20039;-60
2023/12/29 01:39:12;;;;;;;6.85;1.60;;;;;;;11.07;92.95;100338.91;10534885;28;20044;-60
2023/12/29 01:44:33;;;;;;;7.72;1.60;;;;;;;11.01;93.54;100331.38;10547894;28;20055;-60
2023/12/29 01:49:55;;;;;;;7.05;1.38;;;;;;;10.84;94.51;100318.25;10537653;28;20051;-59
2023/12/29 01:55:19;;;;;;;4.95;1.00;;;;;;;10.74;93.17;100318.69;10542768;28;20160;-60
2023/12/29 02:00:42;;;;;;;3.38;0.90;;;;;;;10.62;94.18;100325.16;10549181;27;20047;-59
2023/12/29 02:06:06;;;;;;;6.25;1.85;;;;;;;10.59;96.25;100314.09;10535908;27;20084;-59
2023/12/29 02:11:27;;;;;;;10.63;2.03;;;;;;;10.62;96.64;100348.44;10543162;28;20031;-60
2023/12/29 02:17:20;;;;;;;10.50;1.80;;;;;;;10.55;99.48;100321.13;10546260;27;20058;-60
2023/12/29 02:22:42;;;;;;;10.88;1.92;;;;;;;10.51;100.00;100305.81;10551292;28;20051;-60
2023/12/29 02:28:15;;;;;;;12.52;2.13;;;;;;;10.52;99.70;100297.97;10523166;28;20129;-59
2023/12/29 02:33:40;;;;;;;10.43;1.85;;;;;;;10.55;98.67;100271.97;10538579;28;20055;-59
2023/12/29 02:39:02;;;;;;;10.07;1.85;;;;;;;10.47;100.00;100245.59;10542953;28;20054;-59
2023/12/29 02:44:24;;;;;;;9.95;1.70;;;;;;;10.50;99.63;100231.66;10545980;28;20058;-60
2023/12/29 02:49:45;;;;;;;8.63;1.77;;;;;;;10.45;99.64;100224.09;10550414;27;20046;-60
2023/12/29 02:55:07;;;;;;;8.52;1.70;;;;;;;10.42;100.00;100244.91;10547198;27;20043;-59
2023/12/29 03:00:29;;;;;;;9.43;2.30;;;;;;;10.37;100.00;100241.66;10548128;28;20062;-60
2023/12/29 03:05:51;;;;;;;10.93;2.03;;;;;;;10.27;100.00;100289.47;10528229;27;20142;-60
2023/12/29 03:11:13;;;;;;;10.80;1.98;;;;;;;10.20;100.00;100285.41;10541929;28;20047;-59
2023/12/29 03:16:34;;;;;;;3.47;1.00;;;;;;;9.67;100.00;100408.72;10546429;27;20412;-59
2023/12/29 03:21:56;;;;;;;3.92;0.80;;;;;;;7.36;98.39;100399.03;10546527;27;20127;-60
2023/12/29 03:27:18;;;;;;;6.70;1.00;;;;;;;6.71;100.00;100346.56;10541177;27;20054;-59
2023/12/29 03:32:39;;;;;;;8.85;0.93;;;;;;;6.70;100.00;100298.59;10546034;28;20056;-59
2023/12/29 03:38:01;;;;;;;8.88;1.50;;;;;;;6.85;100.00;100287.97;10538537;28;20125;-60
2023/12/29 03:43:23;;;;;;;12.57;1.60;;;;;;;7.13;100.00;100291.56;10543450;28;20389;-59
2023/12/29 03:48:45;;;;;;;10.40;1.60;;;;;;;7.31;100.00;100322.88;10536452;27;20044;-59
2023/12/29 03:54:07;;;;;;;8.65;1.42;;;;;;;7.75;100.00;100307.94;10545995;28;20353;-59
2023/12/29 03:59:28;;;;;;;7.80;1.15;;;;;;;7.90;100.00;100266.31;10550815;28;20039;-59
2023/12/29 04:04:52;;;;;;;6.30;1.40;;;;;;;7.93;100.00;100261.06;10551331;27;20149;-59
2023/12/29 04:10:14;;;;;;;10.98;1.20;;;;;;;8.09;100.00;100262.31;10537695;28;20051;-59
2023/12/29 04:15:35;;;;;;;13.68;1.50;;;;;;;8.34;100.00;100257.31;10531137;28;20048;-58
2023/12/29 04:20:57;;;;;;;10.43;1.50;;;;;;;8.48;100.00;100238.88;10545463;27;20130;-59
2023/12/29 04:26:19;;;;;;;10.00;1.50;;;;;;;8.62;100.00;100242.72;10539989;28;20051;-59
2023/12/29 04:31:41;;;;;;;8.27;1.70;;;;;;;8.93;100.00;100239.97;10540616;27;20489;-58
2023/12/29 04:37:04;;;;;;;11.15;2.53;;;;;;;9.05;100.00;100222.34;10544567;27;20051;-59
2023/12/29 04:42:27;;;;;;;13.68;2.83;;;;;;;9.30;100.00;100226.69;10543925;28;20048;-58
2023/12/29 04:47:49;;;;;;;15.60;3.08;;;;;;;9.43;100.00;100215.03;10545883;28;20485;-61
2023/12/29 04:53:11;;;;;;;15.45;2.50;;;;;;;9.57;100.00;100247.22;10526339;28;20137;-59
2023/12/29 04:58:33;;;;;;;11.75;2.30;;;;;;;9.82;100.00;100242.84;10558176;28;20055;-58
2023/12/29 05:03:54;;;;;;;15.15;2.33;;;;;;;9.84;100.00;100230.72;10543824;28;20068;-58
2023/12/29 05:09:16;;;;;;;14.57;2.40;;;;;;;9.97;100.00;100242.28;10534682;28;20059;-59
2023/12/29 05:14:37;;;;;;;13.30;2.15;;;;;;;10.09;100.00;100251.34;10535356;28;20066;-58
2023/12/29 05:19:59;;;;;;;10.57;2.08;;;;;;;10.10;100.00;100247.88;10538777;28;20504;-58
2023/12/29 05:25:23;;;;;;;14.18;2.47;;;;;;;10.09;100.00;100256.53;10535932;28;20064;-59
2023/12/29 05:30:44;;;;;;;17.48;2.70;;;;;;;10.07;100.00;100259.13;10547131;27;20050;-58
2023/12/29 05:36:08;;;;;;;16.25;2.22;;;;;;;10.11;100.00;100275.41;10539358;28;20462;-59
2023/12/29 05:41:30;;;;;;;16.10;2.28;;;;;;;10.11;100.00;100288.31;10548742;28;20043;-58
2023/12/29 05:46:51;;;;;;;15.15;2.83;;;;;;;10.12;100.00;100282.28;10553774;27;20154;-59
2023/12/29 05:52:13;;;;;;;14.25;2.83;;;;;;;10.09;100.00;100290.97;10546425;28;20079;-59
2023/12/29 05:57:35;;;;;;;16.50;2.95;;;;;;;10.16;100.00;100299.38;10554817;27;20047;-59
2023/12/29 06:02:57;;;;;;;24.35;3.35;;;;;;;10.13;100.00;100320.13;10547785;28;20096;-58
2023/12/29 06:08:18;;;;;;;16.02;2.70;;;;;;;10.20;100.00;100311.25;10541590;28;20047;-60
2023/12/29 06:13:40;;;;;;;15.35;2.47;;;;;;;10.14;100.00;100293.41;10545503;27;20051;-58
2023/12/29 06:19:02;;;;;;;18.13;3.53;;;;;;;10.19;99.76;100304.41;10556605;27;20052;-58
2023/12/29 06:24:23;;;;;;;19.13;2.75;;;;;;;10.15;99.24;100313.19;10541227;28;20157;-58
2023/12/29 06:29:45;;;;;;;20.45;2.95;;;;;;;10.15;98.21;100297.66;10546657;27;20131;-58
2023/12/29 06:35:09;;;;;;;17.73;3.08;;;;;;;10.30;95.85;100291.94;10547641;27;20066;-59
2023/12/29 06:40:31;;;;;;;21.23;3.03;;;;;;;10.31;94.46;100292.78;10546141;28;20055;-58
2023/12/29 06:45:53;;;;;;;16.20;2.85;;;;;;;10.30;95.11;100293.66;10542325;27;20552;-60
2023/12/29 06:51:18;;;;;;;14.65;2.25;;;;;;;10.25;94.69;100285.25;10543864;27;20043;-58
2023/12/29 06:56:40;;;;;;;18.63;2.70;;;;;;;10.24;96.00;100299.91;10542393;28;20071;-58
2023/12/29 07:02:02;;;;;;;19.67;3.03;;;;;;;10.31;94.95;100309.13;10543399;27;20404;-58
2023/12/29 07:07:24;;;;;;;19.90;2.53;;;;;;;10.21;97.19;100292.28;10534414;28;20058;-58
2023/12/29 07:12:46;;;;;;;15.57;3.03;;;;;;;10.02;98.30;100261.06;10544563;27;20123;-58
2023/12/29 07:18:08;;;;;;;19.80;3.42;;;;;;;9.97;97.59;100287.97;10549954;28;20054;-59
2023/12/29 07:23:30;;;;;;;23.38;3.17;;;;;;;9.91;98.32;100270.94;10541874;28;20055;-58
2023/12/29 07:28:54;;;;;;;19.35;2.70;;;;;;;9.95;98.78;100300.09;10547381;27;20055;-58
2023/12/29 07:34:15;;;;;;;16.95;2.53;;;;;;;10.01;100.00;100281.78;10559679;28;20450;-58
2023/12/29 07:39:37;;;;;;;23.02;3.22;;;;;;;10.02;100.00;100270.53;10527137;28;20112;-58
2023/12/29 07:45:00;;;;;;;19.33;3.63;;;;;;;10.05;100.00;100267.88;10532070;27;20131;-60
2023/12/29 07:50:22;;;;;;;21.70;3.08;;;;;;;10.08;99.83;100281.50;10542216;28;20048;-58
2023/12/29 07:55:50;;;;;;;20.02;2.92;;;;;;;10.20;99.38;100254.38;10544296;28;20046;-60
2023/12/29 08:01:12;;;;;;;19.33;2.95;;;;;;;10.21;99.46;100270.75;10533410;28;20044;-58
2023/12/29 08:06:33;;;;;;;16.92;2.38;;;;;;;10.13;100.00;100278.78;10525868;28;20043;-59
2023/12/29 08:11:55;;;;;;;20.00;2.83;;;;;;;10.06;100.00;100272.97;10539197;28;20052;-60
2023/12/29 08:17:19;;;;;;;19.55;2.63;;;;;;;10.11;100.00;100270.22;10543240;27;20047;-59
2023/12/29 08:22:42;;;;;;;23.48;3.72;;;;;;;10.10;100.00;100269.41;10545953;28;20050;-59
2023/12/29 08:28:03;;;;;;;20.20;2.65;;;;;;;10.11;100.00;100290.91;10536014;28;20052;-59
2023/12/29 08:33:25;;;;;;;28.48;3.13;;;;;;;10.09;100.00;100297.88;10542182;28;20081;-58
2023/12/29 08:38:47;;;;;;;14.35;2.47;;;;;;;10.14;99.93;100311.50;10537520;28;20043;-58
2023/12/29 08:44:08;;;;;;;13.65;1.83;;;;;;;9.98;97.77;100316.34;10540828;28;20053;-59
2023/12/29 08:49:30;;;;;;;11.82;1.65;;;;;;;9.70;98.68;100307.03;10543834;28;20420;-59
2023/12/29 08:54:52;;;;;;;13.57;2.15;;;;;;;9.51;100.00;100318.88;10540709;28;20062;-58
2023/12/29 09:00:14;;;;;;;11.43;2.00;;;;;;;9.42;100.00;100307.13;10504397;28;20052;-58
2023/12/29 09:05:35;;;;;;;8.75;1.73;;;;;;;9.41;100.00;100309.78;10537848;28;20516;-58
2023/12/29 09:10:57;;;;;;;15.57;2.50;;;;;;;9.47;100.00;100307.81;10548973;27;20039;-58
2023/12/29 09:16:19;;;;;;;23.73;2.83;;;;;;;9.56;100.00;100307.50;10539680;28;20358;-59
2023/12/29 09:21:40;;;;;;;16.45;2.50;;;;;;;9.60;100.00;100326.31;10549966;27;20555;-58
2023/12/29 09:27:02;;;;;;;21.20;3.42;;;;;;;9.65;100.00;100304.59;10517689;28;20095;-59
2023/12/29 09:32:24;;;;;;;17.17;3.20;;;;;;;9.75;100.00;100302.53;10514437;28;20068;-58
2023/12/29 09:37:50;;;;;;;24.80;3.38;;;;;;;9.73;100.00;100319.84;10511580;27;20518;-58
2023/12/29 09:43:12;;;;;;;19.92;3.78;;;;;;;9.83;100.00;100303.13;10532887;27;20056;-58
2023/12/29 09:48:37;;;;;;;22.98;3.15;;;;;;;9.90;100.00;100315.78;10518131;28;20051;-58
2023/12/29 09:54:00;;;;;;;23.15;3.40;;;;;;;9.92;100.00;100320.88;10497937;27;20106;-60
2023/12/29 09:59:23;;;;;;;19.10;2.92;;;;;;;9.99;100.00;100301.69;10510597;28;20052;-58
2023/12/29 10:04:45;;;;;;;17.67;2.88;;;;;;;9.96;100.00;100305.19;10518820;28;20047;-59
2023/12/29 10:10:12;;;;;;;15.07;2.60;;;;;;;10.03;100.00;100317.00;10506913;28;20043;-60
2023/12/29 10:15:54;;;;;;;14.35;2.47;;;;;;;9.97;100.00;100308.63;10519372;27;20054;-59
2023/12/29 10:21:29;;;;;;;11.98;2.17;;;;;;;9.81;100.00;100292.84;10508864;28;20520;-58
2023/12/29 10:26:53;;;;;;;11.73;2.25;;;;;;;9.76;100.00;100281.00;10512722;28;20060;-59
2023/12/29 10:32:14;;;;;;;15.40;2.30;;;;;;;9.86;100.00;100300.44;10523909;28;20048;-59
2023/12/29 10:37:39;;;;;;;11.82;2.03;;;;;;;9.97;99.37;100303.47;10540908;28;20044;-58
2023/12/29 10:43:06;;;;;;;10.63;1.77;;;;;;;9.91;100.00;100298.50;10538253;27;20518;-59
2023/12/29 10:48:28;;;;;;;10.55;1.75;;;;;;;9.92;100.00;100310.56;10543673;27;20054;-59
2023/12/29 10:53:57;;;;;;;10.32;1.70;;;;;;;9.90;100.00;100309.75;10546896;27;20181;-59
2023/12/29 10:59:19;;;;;;;8.25;1.55;;;;;;;9.85;100.00;100314.25;10546706;28;20058;-58
2023/12/29 11:04:41;;;;;;;7.57;1.40;;;;;;;9.82;100.00;100296.25;10547037;28;20120;-59
2023/12/29 11:10:05;;;;;;;9.52;1.60;;;;;;;9.87;100.00;100308.13;10545482;27;20043;-60
2023/12/29 11:15:28;;;;;;;12.68;1.85;;;;;;;9.91;100.00;100294.19;10518988;28;20513;-58
2023/12/29 11:20:49;;;;;;;8.57;1.73;;;;;;;9.98;100.00;100284.50;10544999;28;20126;-58
2023/12/29 11:26:12;;;;;;;13.35;1.95;;;;;;;10.03;100.00;100292.91;10549528;28;20075;-58
2023/12/29 11:31:34;;;;;;;9.57;1.83;;;;;;;9.99;100.00;100291.34;10530747;28;20074;-59
2023/12/29 11:37:15;;;;;;;9.40;1.95;;;;;;;10.02;100.00;100275.72;10543654;28;20477;-60
2023/12/29 11:42:40;;;;;;;9.18;1.90;;;;;;;10.02;100.00;100276.56;10536586;27;20549;-59
2023/12/29 11:48:03;;;;;;;11.23;1.85;;;;;;;10.08;100.00;100255.66;10541161;28;20047;-59
2023/12/29 11:53:32;;;;;;;9.65;1.60;;;;;;;10.14;100.00;100260.63;10541507;27;20063;-59
2023/12/29 11:58:54;;;;;;;7.50;1.42;;;;;;;10.29;98.23;100264.41;10541069;27;20190;-59
2023/12/29 12:04:37;;;;;;;9.43;1.30;;;;;;;10.30;96.45;100245.38;10525026;28;20048;-59
2023/12/29 12:10:32;;;;;;;7.45;1.30;;;;;;;10.36;94.91;100255.50;10543204;27;20601;-59
2023/12/29 12:15:54;;;;;;;10.10;1.37;;;;;;;10.36;95.62;100250.34;10547762;27;20079;-58
2023/12/29 12:21:19;;;;;;;15.40;1.90;;;;;;;10.38;93.83;100274.38;10536133;28;20047;-61
2023/12/29 12:26:41;;;;;;;11.45;1.70;;;;;;;10.39;93.37;100280.38;10520793;28;20048;-57
2023/12/29 12:32:03;;;;;;;8.90;1.95;;;;;;;10.37;93.62;100285.63;10497685;27;20063;-58
2023/12/29 12:37:27;;;;;;;11.98;1.70;;;;;;;10.33;94.31;100281.47;10494195;28;20055;-58
2023/12/29 12:42:48;;;;;;;15.73;1.60;;;;;;;10.30;94.03;100299.69;10536918;27;20493;-59
2023/12/29 12:48:20;;;;;;;11.40;1.48;;;;;;;10.28;95.32;100296.31;10528824;28;20059;-58
2023/12/29 12:53:44;;;;;;;14.38;1.88;;;;;;;10.35;95.18;100284.84;10551099;28;20043;-58
2023/12/29 12:59:05;;;;;;;11.13;1.98;;;;;;;10.35;95.05;100292.59;10518808;28;20064;-58
2023/12/29 13:04:27;;;;;;;11.50;1.60;;;;;;;10.42;95.58;100306.97;10494698;28;20067;-59
2023/12/29 13:09:51;;;;;;;12.48;1.92;;;;;;;10.46;94.67;100295.63;10497417;28;20063;-58
2023/12/29 13:15:13;;;;;;;10.68;1.80;;;;;;;10.50;95.39;100302.38;10514528;28;20462;-61
2023/12/29 13:20:44;;;;;;;9.30;1.65;;;;;;;10.43;94.26;100300.91;10537227;28;20812;-61
2023/12/29 13:26:09;;;;;;;11.32;2.13;;;;;;;10.55;92.70;100303.03;10522852;28;20601;-58
2023/12/29 13:31:32;;;;;;;10.98;1.70;;;;;;;10.50;92.66;100304.09;10504073;28;20534;-59
2023/12/29 13:37:02;;;;;;;12.45;2.42;;;;;;;10.52;92.67;100305.72;10513030;28;20062;-58
2023/12/29 13:42:28;;;;;;;14.32;1.80;;;;;;;10.48;93.18;100296.41;10513881;28;20629;-58
2023/12/29 13:47:50;;;;;;;23.75;2.45;;;;;;;10.46;94.20;100313.72;10515684;28;20504;-60
2023/12/29 13:53:18;;;;;;;17.35;2.33;;;;;;;10.45;94.69;100299.13;10509069;27;20039;-59
2023/12/29 13:58:40;;;;;;;14.32;2.15;;;;;;;10.48;94.96;100324.84;10522027;27;20446;-60
2023/12/29 14:04:07;;;;;;;11.85;2.20;;;;;;;10.52;92.62;100317.81;10524567;27;20085;-59
2023/12/29 14:09:29;;;;;;;9.50;1.70;;;;;;;10.53;89.96;100325.50;10533311;27;20059;-59
2023/12/29 14:14:51;;;;;;;11.73;1.95;;;;;;;10.54;89.28;100319.47;10515796;27;20193;-60
2023/12/29 14:20:35;;;;;;;16.33;2.08;;;;;;;10.46;88.42;100318.03;10515631;28;20048;-59
2023/12/29 14:26:04;;;;;;;9.75;1.63;;;;;;;10.38;88.80;100341.63;10531938;27;20091;-58
2023/12/29 14:31:26;;;;;;;13.32;1.92;;;;;;;10.37;89.41;100333.91;10501525;27;20040;-61
2023/12/29 14:36:48;;;;;;;17.42;2.55;;;;;;;10.35;89.67;100335.69;10489879;27;20101;-61
2023/12/29 14:42:09;;;;;;;15.65;2.50;;;;;;;10.31;89.73;100332.38;10517143;27;20100;-58
2023/12/29 14:47:31;;;;;;;21.75;2.22;;;;;;;10.32;89.02;100321.16;10506755;27;20090;-60
2023/12/29 14:52:53;;;;;;;12.07;2.03;;;;;;;10.25;87.38;100331.78;10505393;28;20039;-58
2023/12/29 14:58:14;;;;;;;14.43;2.40;;;;;;;10.32;87.73;100328.06;10517456;27;20040;-58
2023/12/29 15:03:36;;;;;;;11.80;2.50;;;;;;;10.24;87.94;100338.69;10521972;27;20165;-58
2023/12/29 15:08:58;;;;;;;13.05;2.03;;;;;;;10.23;87.62;100346.50;10497430;27;20060;-58
2023/12/29 15:14:20;;;;;;;16.98;2.50;;;;;;;10.16;88.90;100339.88;10499178;27;20071;-58
2023/12/29 15:19:41;;;;;;;14.70;2.10;;;;;;;10.08;88.08;100342.69;10498989;27;20062;-58
2023/12/29 15:25:03;;;;;;;14.35;2.50;;;;;;;10.06;89.20;100331.56;10491627;28;20055;-59
2023/12/29 15:30:25;;;;;;;11.13;2.17;;;;;;;10.03;89.68;100334.28;10513426;28;20048;-61
2023/12/29 15:35:47;;;;;;;21.92;2.83;;;;;;;9.94;89.54;100342.34;10498909;28;20555;-58
2023/12/29 15:41:09;;;;;;;15.23;2.60;;;;;;;9.97;89.42;100339.66;10499542;28;20191;-58
2023/12/29 15:46:30;;;;;;;12.95;2.53;;;;;;;9.89;90.47;100326.16;10495531;27;20058;-59
2023/12/29 15:51:52;;;;;;;19.50;2.38;;;;;;;9.95;90.08;100323.34;10512584;27;20052;-59
2023/12/29 15:57:14;;;;;;;18.83;2.50;;;;;;;9.87;89.09;100335.72;10513445;27;20059;-59
2023/12/29 16:02:35;;;;;;;13.18;2.15;;;;;;;9.91;90.63;100329.53;10511817;27;20375;-60
2023/12/29 16:07:57;;;;;;;9.80;1.80;;;;;;;9.85;90.38;100334.94;10512296;28;20043;-59
2023/12/29 16:13:19;;;;;;;18.00;2.63;;;;;;;9.85;90.63;100330.59;10513472;28;20048;-59
2023/12/29 16:18:41;;;;;;;13.60;1.98;;;;;;;9.78;89.57;100323.09;10513743;28;20052;-59
2023/12/29 16:24:06;;;;;;;20.70;3.22;;;;;;;9.76;90.27;100324.91;10509126;28;20072;-61
2023/12/29 16:29:31;;;;;;;16.50;2.45;;;;;;;9.72;90.43;100319.00;10485105;27;20057;-61
2023/12/29 16:34:55;;;;;;;13.48;2.20;;;;;;;9.69;89.69;100311.34;10495244;28;20044;-60
2023/12/29 16:40:20;;;;;;;11.95;1.88;;;;;;;9.72;89.86;100324.19;10542749;28;20071;-59
2023/12/29 16:45:43;;;;;;;15.95;3.00;;;;;;;9.76;89.84;100332.66;10539825;27;20047;-60
2023/12/29 16:51:10;;;;;;;16.05;2.70;;;;;;;9.75;88.75;100333.53;10531857;28;20043;-60
2023/12/29 16:56:42;;;;;;;13.57;1.95;;;;;;;9.71;89.38;100331.97;10532201;28;20052;-60
2023/12/29 17:02:11;;;;;;;11.60;2.20;;;;;;;9.72;89.65;100333.66;10523587;28;20058;-60
2023/12/29 17:07:39;;;;;;;17.45;2.33;;;;;;;9.70;90.66;100331.13;10518638;28;20339;-61
2023/12/29 17:13:03;;;;;;;16.60;2.38;;;;;;;9.73;89.90;100317.25;10502497;28;20044;-60
2023/12/29 17:18:25;;;;;;;12.48;2.58;;;;;;;9.70;90.54;100294.13;10526396;28;20053;-61
2023/12/29 17:23:48;;;;;;;17.38;2.45;;;;;;;9.68;90.11;100293.31;10546908;28;20054;-62
2023/12/29 17:29:12;;;;;;;13.73;2.50;;;;;;;9.71;90.98;100293.22;10560867;27;20044;-59
2023/12/29 17:34:40;;;;;;;16.40;2.38;;;;;;;9.64;90.53;100294.31;10550681;27;20079;-62
2023/12/29 17:40:08;;;;;;;15.57;2.30;;;;;;;9.64;90.65;100297.75;10550697;27;20047;-60
2023/12/29 17:45:31;;;;;;;14.05;2.22;;;;;;;9.68;91.33;100290.75;10550342;27;20109;-61
2023/12/29 17:50:53;;;;;;;15.52;2.53;;;;;;;9.70;90.81;100299.28;10555164;27;20035;-62
2023/12/29 17:56:14;;;;;;;13.25;2.08;;;;;;;9.68;90.82;100319.16;10535646;27;20096;-60
2023/12/29 18:01:36;;;;;;;10.68;2.40;;;;;;;9.64;92.18;100326.19;10551465;27;20051;-59
2023/12/29 18:06:58;;;;;;;17.90;2.80;;;;;;;9.66;92.10;100331.28;10550500;27;20050;-59
2023/12/29 18:12:27;;;;;;;10.63;2.13;;;;;;;9.66;91.64;100320.94;10551309;27;20047;-59
2023/12/29 18:17:49;;;;;;;15.95;2.67;;;;;;;9.65;91.56;100321.88;10552131;27;20059;-59
2023/12/29 18:23:11;;;;;;;9.55;2.10;;;;;;;9.65;90.80;100332.19;10545100;27;20051;-59
2023/12/29 18:28:33;;;;;;;11.63;1.85;;;;;;;9.64;89.42;100343.41;10552660;27;20048;-59
2023/12/29 18:33:56;;;;;;;12.13;2.10;;;;;;;9.63;87.92;100346.91;10552223;27;20044;-59
2023/12/29 18:39:18;;;;;;;8.82;2.25;;;;;;;9.64;87.81;100343.41;10555629;27;20056;-59
2023/12/29 18:44:39;;;;;;;12.70;2.13;;;;;;;9.64;86.91;100346.00;10550976;27;20484;-59
2023/12/29 18:50:01;;;;;;;9.55;1.65;;;;;;;9.51;84.89;100339.53;10550502;27;20392;-60
2023/12/29 18:55:23;;;;;;;4.38;1.20;;;;;;;9.53;82.78;100325.69;10551329;27;20497;-59
2023/12/29 19:00:45;;;;;;;3.55;0.68;;;;;;;9.39;85.42;100348.56;10553454;27;20065;-59
2023/12/29 19:06:07;;;;;;;5.70;1.52;;;;;;;9.21;85.08;100368.97;10547203;27;20079;-60
2023/12/29 19:11:29;;;;;;;3.65;1.00;;;;;;;9.10;85.23;100379.63;10548365;27;20044;-59
2023/12/29 19:16:52;;;;;;;4.63;0.82;;;;;;;9.01;86.56;100385.91;10557539;27;20057;-59
2023/12/29 19:22:14;;;;;;;3.92;0.80;;;;;;;8.87;85.55;100370.00;10547466;27;20047;-59
2023/12/29 19:27:36;;;;;;;3.53;0.93;;;;;;;8.88;86.78;100383.75;10549912;27;20059;-60
2023/12/29 19:32:57;;;;;;;3.90;0.73;;;;;;;8.78;86.59;100375.44;10552161;27;20126;-59
2023/12/29 19:38:19;;;;;;;3.28;0.70;;;;;;;8.74;87.96;100371.28;10556134;27;20066;-58
2023/12/29 19:43:41;;;;;;;5.07;0.80;;;;;;;8.63;88.87;100368.16;10546381;27;20047;-59
2023/12/29 19:49:03;;;;;;;4.63;0.90;;;;;;;8.56;88.85;100386.44;10548656;27;20059;-59
2023/12/29 19:54:26;;;;;;;2.85;0.80;;;;;;;8.46;90.50;100380.69;10555142;27;20057;-59
2023/12/29 19:59:48;;;;;;;3.28;0.90;;;;;;;8.38;90.42;100382.66;10542441;27;20454;-59
2023/12/29 20:05:10;;;;;;;7.18;1.20;;;;;;;8.33;90.86;100394.84;10562026;27;20051;-59
2023/12/29 20:10:33;;;;;;;3.50;1.00;;;;;;;8.24;91.14;100392.50;10548129;27;20488;-59
2023/12/29 20:15:54;;;;;;;3.83;1.00;;;;;;;8.18;91.83;100400.38;10542816;27;20123;-59
2023/12/29 20:21:22;;;;;;;7.50;1.30;;;;;;;8.11;92.47;100409.16;10543965;27;20080;-59
2023/12/29 20:26:43;;;;;;;5.87;1.00;;;;;;;8.04;92.70;100402.47;10544916;27;20425;-59
2023/12/29 20:32:06;;;;;;;5.93;1.40;;;;;;;8.01;93.45;100411.13;10544823;27;20079;-59
2023/12/29 20:37:28;;;;;;;6.15;1.35;;;;;;;7.95;93.62;100418.16;10549817;27;20055;-59
2023/12/29 20:42:50;;;;;;;8.25;1.15;;;;;;;7.89;93.71;100420.91;10545285;27;20051;-59
2023/12/29 20:48:13;;;;;;;3.65;1.20;;;;;;;7.89;94.38;100423.50;10525879;28;20079;-59
2023/12/29 20:53:35;;;;;;;5.95;1.23;;;;;;;7.87;94.17;100414.94;10526466;28;20146;-59
2023/12/29 20:58:58;;;;;;;6.13;1.50;;;;;;;7.85;94.58;100416.72;10535908;28;20051;-59
2023/12/29 21:04:19;;;;;;;5.68;1.30;;;;;;;7.87;94.87;100425.25;10533500;28;20138;-60
2023/12/29 21:09:41;;;;;;;5.38;1.13;;;;;;;7.86;94.39;100434.69;10537388;28;20058;-61
2023/12/29 21:15:03;;;;;;;5.63;1.20;;;;;;;7.86;94.39;100439.00;10541911;28;20983;-60
2023/12/29 21:20:25;;;;;;;4.85;1.25;;;;;;;7.86;94.96;100439.00;10548717;28;20058;-60
2023/12/29 21:25:47;;;;;;;3.97;1.30;;;;;;;7.88;95.59;100426.94;10536138;28;20048;-60
2023/12/29 21:31:14;;;;;;;5.35;1.00;;;;;;;7.86;94.19;100439.00;10539850;28;20041;-59
2023/12/29 21:36:46;;;;;;;4.22;1.05;;;;;;;7.80;94.63;100434.03;10525090;28;20060;-60
2023/12/29 21:42:08;;;;;;;4.60;1.10;;;;;;;7.78;95.13;100451.25;10537174;28;20040;-59
2023/12/29 21:47:30;;;;;;;5.20;1.38;;;;;;;7.78;95.02;100446.09;10538739;28;20043;-60
2023/12/29 21:52:53;;;;;;;7.00;1.27;;;;;;;7.73;95.49;100447.91;10537075;28;20573;-60
2023/12/29 21:58:15;;;;;;;3.90;1.08;;;;;;;7.75;94.61;100446.16;10533068;28;20572;-60
2023/12/29 22:03:36;;;;;;;4.85;1.20;;;;;;;7.74;95.57;100435.03;10541398;28;20051;-59
2023/12/29 22:08:58;;;;;;;4.63;1.20;;;;;;;7.74;95.12;100431.59;10538757;28;20078;-60
2023/12/29 22:14:21;;;;;;;4.47;1.17;;;;;;;7.74;95.54;100440.19;10529672;27;20113;-59
2023/12/29 22:19:43;;;;;;;7.18;1.33;;;;;;;7.72;95.04;100436.78;10527922;27;20051;-59
2023/12/29 22:25:05;;;;;;;8.57;1.30;;;;;;;7.75;95.26;100443.56;10537890;27;20536;-59
2023/12/29 22:30:27;;;;;;;6.35;1.23;;;;;;;7.73;94.71;100459.06;10521676;27;20068;-59
2023/12/29 22:35:49;;;;;;;8.60;1.10;;;;;;;7.73;94.97;100450.50;10541233;27;20593;-59
2023/12/29 22:41:13;;;;;;;3.08;0.90;;;;;;;7.73;95.04;100458.22;10532706;27;20066;-59
2023/12/29 22:46:35;;;;;;;4.70;1.20;;;;;;;7.74;95.23;100460.78;10552301;27;20129;-59
2023/12/29 22:51:57;;;;;;;5.43;1.13;;;;;;;7.69;95.86;100451.47;10539218;27;20117;-59
2023/12/29 22:57:18;;;;;;;4.85;1.13;;;;;;;7.65;96.09;100447.28;10529914;27;20048;-59
2023/12/29 23:02:41;;;;;;;5.20;1.30;;;;;;;7.58;97.07;100449.13;10545054;27;20043;-59
2023/12/29 23:08:03;;;;;;;10.18;1.70;;;;;;;7.63;97.48;100456.75;10544597;27;20060;-59
2023/12/29 23:13:27;;;;;;;4.53;1.30;;;;;;;7.62;98.13;100470.50;10528663;27;20071;-58
2023/12/29 23:18:49;;;;;;;8.43;1.50;;;;;;;7.57;100.00;100446.59;10533951;27;20070;-59
2023/12/29 23:24:11;;;;;;;8.73;1.80;;;;;;;7.53;100.00;100429.53;10530430;27;20040;-60
2023/12/29 23:29:33;;;;;;;8.07;1.80;;;;;;;7.55;100.00;100432.91;10542260;27;20060;-59
2023/12/29 23:34:54;;;;;;;7.47;1.67;;;;;;;7.55;100.00;100433.78;10541818;27;20411;-59
2023/12/29 23:40:20;;;;;;;7.95;1.70;;;;;;;7.53;100.00;100444.97;10538268;27;20059;-58
2023/12/29 23:45:42;;;;;;;8.75;1.50;;;;;;;7.57;100.00;100451.75;10527007;27;20056;-58
2023/12/29 23:51:04;;;;;;;6.28;1.70;;;;;;;7.54;100.00;100478.44;10539875;27;20104;-58
2023/12/29 23:56:26;;;;;;;7.43;1.38;;;;;;;7.66;100.00;100490.16;10528176;27;20055;-58
